TJSJTNCM

Guest
Details From TJSJ - San Juan - Luis Munoz Marin Intl
To TNCM - St Maarten - Princess Juliana Intl
Flight Number -
Tags decoded
Created
Modified
Stats Distance 171 nm / 317 km
Max Altitude 0 ft / 0 m
Waypoints 4
Social Downloads 48
Likes 0
Share VATSIM

Download

Looking for another format? Having issues loading an existing format? Contact us
Advertisement - Login to hide

Notes

Requested: TJSJ JETSS1 SLUGO PJM TNCM Unmatched points: JETSS1

Route

TJSJ SLUGO PJM TNCM

ID Type Via Altitude Latitude Longitude Leg Dist Tot Dist Heading (true) Name
O TJSJ APT - 0 ft / 0 m 18.43878˚ -66.00202˚ - 0 nm - San Juan - Luis Munoz Marin Intl
SLUGO FIX - 0 ft / 0 m 18.38944˚ -63.66667˚ 133 nm 133 nm 91° / 92° -
PJM VOR - 0 ft / 0 m 18.03811˚ -63.11828˚ 37 nm 170 nm 124° / 124° ST MAARTEN VOR-DME
O TNCM APT - 0 ft / 0 m 18.04089˚ -63.10897˚ 0 nm 171 nm 73° / 73° St Maarten - Princess Juliana Intl

Altitude Profile

Advertisement - Login to hide

Weather


0- 5 10 15 20 25 30 35+ Temperature / ° C

Clouds and Precipitation
Forecast for 2017-12-18 06:00 UTC. Updated 36 minutes ago

Ground ~20,000 ft ~40,000 ft Winds

TJSJ

Details ICAO TJSJ (SJU)
Name San Juan - Luis Munoz Marin Intl
Region USA (Puerto Rico)
Timezone America/Puerto_Rico (UTC-4.0)
Stats Elevation 9 ft / 3 m (AMSL)
Location 18.438777° -66.002018°
Runways 2
Magnetic Variation 13.222° W

METAR

TJSJ 180056Z 05012KT 10SM -RA FEW016 FEW025 SCT042 25/24 A3008

Decode

TAF

TAF TAF TJSJ 172323Z 1800/1824 05014KT P6SM -RA SCT022 SCT040 BKN070 TEMPO 1800/1804 VRB12G22KT 4SM SHRA BKN022 BKN040 FM180400 07012KT P6SM VCSH SCT022 BKN050 FM181430 06017KT P6SM SCT025 SCT050 SCT080

Decode

Departure Runways

ID Width Length Bearing (true) Bearing (mag) Surface Threshold Offset Overrun Length
08 200 ft / 61 m 9,781 ft / 2,981 m 66.87° 80.09° Asphalt 0 ft / 0 m 200 ft / 61 m
10 151 ft / 46 m 8,007 ft / 2,440 m 90.14° 103.36° Concrete 0 ft / 0 m 200 ft / 61 m
26 200 ft / 61 m 9,781 ft / 2,981 m 246.88° 260.10° Asphalt 0 ft / 0 m 230 ft / 70 m
28 151 ft / 46 m 8,007 ft / 2,440 m 270.15° 283.37° Concrete 0 ft / 0 m 200 ft / 61 m

TNCM

Details ICAO TNCM (SXM)
Name St Maarten - Princess Juliana Intl
Region Caribbean Netherlands, Aruba, Curaçao, Sint Maarten
Timezone Unknown (UTC+0.0)
Stats Elevation 12 ft / 4 m (AMSL)
Location 18.040889° -63.108974°
Runways 1
Magnetic Variation 14.325° W

METAR

TNCM 180100Z 07012KT 9999 -SHRA SCT020 26/22 Q1017 A3005

Decode

TAF

TAF TNCM 172323Z 1800/1824 04012KT P6SM VCSH FEW018 SCT035 TEMPO 1800/1804 VRB12G20KT -SHRA BKN018 BKN035 FM180500 07011KT P6SM -RA SCT018 SCT040 FM181430 08014KT P6SM SCT022 SCT060

Decode

Destination Runways

ID Width Length Bearing (true) Bearing (mag) Surface Threshold Offset Overrun Length
10 148 ft / 45 m 7,464 ft / 2,275 m 81.43° 95.76° Asphalt 0 ft / 0 m 151 ft / 46 m
28 148 ft / 45 m 7,464 ft / 2,275 m 261.44° 275.77° Asphalt 397 ft / 121 m 0 ft / 0 m

Popular Alternatives